sensor_id;sensor_type;location;lat;lon;timestamp;pressure;altitude;pressure_sealevel;temperature;humidity
57885;BME280;43703;51.060;-0.086;2022-07-12T00:01:34;100864.45;;;20.18;42.26
57885;BME280;43703;51.060;-0.086;2022-07-12T00:03:55;100865.82;;;20.19;42.54
57885;BME280;43703;51.060;-0.086;2022-07-12T00:06:21;100862.46;;;19.81;39.71
57885;BME280;43703;51.060;-0.086;2022-07-12T00:08:48;100861.01;;;20.43;41.81
57885;BME280;43703;51.060;-0.086;2022-07-12T00:11:12;100860.67;;;20.38;42.62
57885;BME280;43703;51.060;-0.086;2022-07-12T00:13:37;100858.32;;;19.97;40.84
57885;BME280;43703;51.060;-0.086;2022-07-12T00:16:01;100858.51;;;20.26;40.68
57885;BME280;43703;51.060;-0.086;2022-07-12T00:18:27;100861.84;;;20.42;43.01
57885;BME280;43703;51.060;-0.086;2022-07-12T00:20:56;100861.60;;;19.99;40.62
57885;BME280;43703;51.060;-0.086;2022-07-12T00:23:17;100863.47;;;20.05;41.79
57885;BME280;43703;51.060;-0.086;2022-07-12T00:25:42;100867.42;;;19.93;41.93
57885;BME280;43703;51.060;-0.086;2022-07-12T00:28:07;100865.46;;;19.93;42.71
57885;BME280;43703;51.060;-0.086;2022-07-12T00:30:32;100869.08;;;19.89;43.26
57885;BME280;43703;51.060;-0.086;2022-07-12T00:32:56;100867.30;;;19.25;39.96
57885;BME280;43703;51.060;-0.086;2022-07-12T00:35:21;100867.43;;;19.85;40.33
57885;BME280;43703;51.060;-0.086;2022-07-12T00:37:46;100863.83;;;19.72;39.55
57885;BME280;43703;51.060;-0.086;2022-07-12T00:40:11;100865.23;;;19.67;40.79
57885;BME280;43703;51.060;-0.086;2022-07-12T00:42:36;100867.39;;;20.11;42.60
57885;BME280;43703;51.060;-0.086;2022-07-12T00:45:01;100867.26;;;20.13;42.59
57885;BME280;43703;51.060;-0.086;2022-07-12T00:47:33;100872.26;;;19.69;39.84
57885;BME280;43703;51.060;-0.086;2022-07-12T00:49:53;100873.77;;;19.75;40.90
57885;BME280;43703;51.060;-0.086;2022-07-12T00:52:16;100865.97;;;19.42;39.99
57885;BME280;43703;51.060;-0.086;2022-07-12T00:54:42;100866.49;;;19.15;40.60
57885;BME280;43703;51.060;-0.086;2022-07-12T00:57:06;100863.26;;;19.38;40.56
57885;BME280;43703;51.060;-0.086;2022-07-12T00:59:31;100870.68;;;19.22;40.61
57885;BME280;43703;51.060;-0.086;2022-07-12T01:01:57;100867.93;;;19.24;41.20
57885;BME280;43703;51.060;-0.086;2022-07-12T01:04:22;100865.00;;;19.02;41.23
57885;BME280;43703;51.060;-0.086;2022-07-12T01:06:47;100860.30;;;18.86;41.35
57885;BME280;43703;51.060;-0.086;2022-07-12T01:09:16;100855.21;;;18.29;42.69
57885;BME280;43703;51.060;-0.086;2022-07-12T01:11:36;100856.19;;;17.95;43.05
57885;BME280;43703;51.060;-0.086;2022-07-12T01:14:01;100856.88;;;18.59;43.31
57885;BME280;43703;51.060;-0.086;2022-07-12T01:16:26;100861.08;;;18.92;42.96
57885;BME280;43703;51.060;-0.086;2022-07-12T01:18:52;100864.73;;;19.38;42.43
57885;BME280;43703;51.060;-0.086;2022-07-12T01:21:19;100864.37;;;19.57;42.65
57885;BME280;43703;51.060;-0.086;2022-07-12T01:23:42;100864.24;;;19.22;42.30
57885;BME280;43703;51.060;-0.086;2022-07-12T01:26:07;100860.30;;;19.52;41.63
57885;BME280;43703;51.060;-0.086;2022-07-12T01:28:32;100862.57;;;19.12;41.80
57885;BME280;43703;51.060;-0.086;2022-07-12T01:30:57;100859.25;;;18.98;42.72
57885;BME280;43703;51.060;-0.086;2022-07-12T01:33:21;100857.69;;;19.09;43.58
57885;BME280;43703;51.060;-0.086;2022-07-12T01:35:48;100857.25;;;18.99;42.63
57885;BME280;43703;51.060;-0.086;2022-07-12T01:38:11;100855.15;;;19.27;42.33
57885;BME280;43703;51.060;-0.086;2022-07-12T01:40:38;100856.44;;;19.04;43.26
57885;BME280;43703;51.060;-0.086;2022-07-12T01:43:02;100853.90;;;18.96;43.18
57885;BME280;43703;51.060;-0.086;2022-07-12T01:45:26;100852.93;;;18.92;43.24
57885;BME280;43703;51.060;-0.086;2022-07-12T01:47:51;100850.32;;;19.21;43.67
57885;BME280;43703;51.060;-0.086;2022-07-12T01:50:17;100850.30;;;18.94;43.56
57885;BME280;43703;51.060;-0.086;2022-07-12T01:52:42;100853.42;;;19.10;44.45
57885;BME280;43703;51.060;-0.086;2022-07-12T01:55:08;100853.56;;;18.92;43.75
57885;BME280;43703;51.060;-0.086;2022-07-12T01:57:32;100858.56;;;19.16;45.53
57885;BME280;43703;51.060;-0.086;2022-07-12T01:59:58;100859.50;;;19.09;44.87
57885;BME280;43703;51.060;-0.086;2022-07-12T02:02:23;100864.34;;;19.23;44.97
57885;BME280;43703;51.060;-0.086;2022-07-12T02:04:48;100866.15;;;19.26;43.33
57885;BME280;43703;51.060;-0.086;2022-07-12T02:07:11;100867.39;;;19.12;45.80
57885;BME280;43703;51.060;-0.086;2022-07-12T02:09:37;100868.42;;;19.28;43.72
57885;BME280;43703;51.060;-0.086;2022-07-12T02:12:03;100866.61;;;19.10;45.29
57885;BME280;43703;51.060;-0.086;2022-07-12T02:14:27;100862.53;;;19.42;46.09
57885;BME280;43703;51.060;-0.086;2022-07-12T02:16:53;100857.64;;;19.37;45.24
57885;BME280;43703;51.060;-0.086;2022-07-12T02:19:17;100850.76;;;19.02;45.53
57885;BME280;43703;51.060;-0.086;2022-07-12T02:21:41;100850.63;;;18.91;44.67
57885;BME280;43703;51.060;-0.086;2022-07-12T02:24:07;100853.29;;;19.41;45.92
57885;BME280;43703;51.060;-0.086;2022-07-12T02:26:33;100859.82;;;19.46;45.68
57885;BME280;43703;51.060;-0.086;2022-07-12T02:28:58;100860.87;;;19.55;44.80
57885;BME280;43703;51.060;-0.086;2022-07-12T02:31:22;100859.97;;;19.69;46.14
57885;BME280;43703;51.060;-0.086;2022-07-12T02:33:47;100853.90;;;18.96;44.62
57885;BME280;43703;51.060;-0.086;2022-07-12T02:36:13;100850.07;;;19.34;45.95
57885;BME280;43703;51.060;-0.086;2022-07-12T02:38:41;100856.72;;;19.47;46.43
57885;BME280;43703;51.060;-0.086;2022-07-12T02:41:02;100857.99;;;19.36;45.56
57885;BME280;43703;51.060;-0.086;2022-07-12T02:43:29;100855.94;;;19.74;45.82
57885;BME280;43703;51.060;-0.086;2022-07-12T02:45:53;100849.85;;;19.90;44.94
57885;BME280;43703;51.060;-0.086;2022-07-12T02:48:19;100845.67;;;19.20;45.03
57885;BME280;43703;51.060;-0.086;2022-07-12T02:50:43;100841.83;;;18.62;45.44
57885;BME280;43703;51.060;-0.086;2022-07-12T02:53:09;100836.02;;;18.60;46.32
57885;BME280;43703;51.060;-0.086;2022-07-12T02:55:34;100833.05;;;18.64;46.71
57885;BME280;43703;51.060;-0.086;2022-07-12T02:57:57;100840.15;;;19.42;46.32
57885;BME280;43703;51.060;-0.086;2022-07-12T03:00:23;100847.30;;;19.12;47.24
57885;BME280;43703;51.060;-0.086;2022-07-12T03:02:48;100850.78;;;19.47;47.50
57885;BME280;43703;51.060;-0.086;2022-07-12T03:05:13;100852.87;;;19.77;47.10
57885;BME280;43703;51.060;-0.086;2022-07-12T03:07:39;100852.31;;;19.47;47.60
57885;BME280;43703;51.060;-0.086;2022-07-12T03:10:05;100854.76;;;19.23;47.57
57885;BME280;43703;51.060;-0.086;2022-07-12T03:12:28;100852.54;;;19.41;47.77
57885;BME280;43703;51.060;-0.086;2022-07-12T03:14:54;100853.43;;;18.91;48.24
57885;BME280;43703;51.060;-0.086;2022-07-12T03:17:19;100849.59;;;19.24;48.61
57885;BME280;43703;51.060;-0.086;2022-07-12T03:19:43;100845.41;;;18.56;48.61
57885;BME280;43703;51.060;-0.086;2022-07-12T03:22:09;100852.67;;;19.14;48.75
57885;BME280;43703;51.060;-0.086;2022-07-12T03:24:34;100856.41;;;19.15;48.98
57885;BME280;43703;51.060;-0.086;2022-07-12T03:26:59;100850.37;;;18.93;49.16
57885;BME280;43703;51.060;-0.086;2022-07-12T03:29:24;100848.17;;;18.57;49.40
57885;BME280;43703;51.060;-0.086;2022-07-12T03:31:49;100845.47;;;18.78;49.09
57885;BME280;43703;51.060;-0.086;2022-07-12T03:34:14;100841.55;;;18.72;48.91
57885;BME280;43703;51.060;-0.086;2022-07-12T03:36:39;100837.96;;;18.45;49.24
57885;BME280;43703;51.060;-0.086;2022-07-12T03:39:04;100840.61;;;18.31;49.61
57885;BME280;43703;51.060;-0.086;2022-07-12T03:41:29;100842.96;;;18.80;49.61
57885;BME280;43703;51.060;-0.086;2022-07-12T03:43:53;100849.81;;;19.08;49.98
57885;BME280;43703;51.060;-0.086;2022-07-12T03:46:19;100851.50;;;19.02;49.75
57885;BME280;43703;51.060;-0.086;2022-07-12T03:48:44;100848.13;;;18.98;49.85
57885;BME280;43703;51.060;-0.086;2022-07-12T03:51:09;100843.13;;;18.49;49.40
57885;BME280;43703;51.060;-0.086;2022-07-12T03:53:39;100840.19;;;18.55;50.40
57885;BME280;43703;51.060;-0.086;2022-07-12T03:55:59;100839.07;;;18.23;50.43
57885;BME280;43703;51.060;-0.086;2022-07-12T03:58:24;100834.45;;;17.89;51.37
57885;BME280;43703;51.060;-0.086;2022-07-12T04:00:50;100831.94;;;17.92;51.86
57885;BME280;43703;51.060;-0.086;2022-07-12T04:03:15;100831.47;;;18.08;52.22
57885;BME280;43703;51.060;-0.086;2022-07-12T04:05:39;100834.18;;;17.78;53.00
57885;BME280;43703;51.060;-0.086;2022-07-12T04:08:05;100839.30;;;17.52;53.52
57885;BME280;43703;51.060;-0.086;2022-07-12T04:10:29;100839.42;;;17.71;52.94
57885;BME280;43703;51.060;-0.086;2022-07-12T04:12:54;100839.92;;;17.91;52.80
57885;BME280;43703;51.060;-0.086;2022-07-12T04:15:19;100838.27;;;17.42;53.45
57885;BME280;43703;51.060;-0.086;2022-07-12T04:17:46;100839.68;;;17.51;53.80
57885;BME280;43703;51.060;-0.086;2022-07-12T04:20:11;100842.71;;;17.70;54.18
57885;BME280;43703;51.060;-0.086;2022-07-12T04:22:36;100844.65;;;17.62;53.98
57885;BME280;43703;51.060;-0.086;2022-07-12T04:25:02;100845.93;;;17.75;53.30
57885;BME280;43703;51.060;-0.086;2022-07-12T04:27:25;100846.45;;;17.26;54.85
57885;BME280;43703;51.060;-0.086;2022-07-12T04:29:50;100845.56;;;18.12;53.47
57885;BME280;43703;51.060;-0.086;2022-07-12T04:32:15;100847.11;;;17.92;53.02
57885;BME280;43703;51.060;-0.086;2022-07-12T04:34:40;100852.18;;;18.60;52.88
57885;BME280;43703;51.060;-0.086;2022-07-12T04:37:06;100851.29;;;18.69;51.80
57885;BME280;43703;51.060;-0.086;2022-07-12T04:39:31;100856.57;;;18.04;52.93
57885;BME280;43703;51.060;-0.086;2022-07-12T04:41:55;100858.90;;;18.78;52.87
57885;BME280;43703;51.060;-0.086;2022-07-12T04:44:21;100860.66;;;17.72;53.70
57885;BME280;43703;51.060;-0.086;2022-07-12T04:46:52;100858.91;;;18.16;53.43
57885;BME280;43703;51.060;-0.086;2022-07-12T04:49:12;100857.10;;;17.77;54.42
57885;BME280;43703;51.060;-0.086;2022-07-12T04:51:38;100855.60;;;17.98;54.38
57885;BME280;43703;51.060;-0.086;2022-07-12T04:54:02;100850.79;;;18.55;53.51
57885;BME280;43703;51.060;-0.086;2022-07-12T04:56:28;100851.04;;;18.12;54.19
57885;BME280;43703;51.060;-0.086;2022-07-12T04:58:52;100851.55;;;17.91;54.67
57885;BME280;43703;51.060;-0.086;2022-07-12T05:01:17;100851.78;;;18.42;53.82
57885;BME280;43703;51.060;-0.086;2022-07-12T05:03:43;100851.60;;;18.39;53.86
57885;BME280;43703;51.060;-0.086;2022-07-12T05:06:07;100851.03;;;18.91;53.01
57885;BME280;43703;51.060;-0.086;2022-07-12T05:08:33;100845.06;;;18.15;54.66
57885;BME280;43703;51.060;-0.086;2022-07-12T05:10:58;100843.08;;;18.27;55.13
57885;BME280;43703;51.060;-0.086;2022-07-12T05:13:24;100842.28;;;17.99;55.90
57885;BME280;43703;51.060;-0.086;2022-07-12T05:15:54;100852.82;;;18.43;55.18
57885;BME280;43703;51.060;-0.086;2022-07-12T05:18:14;100858.84;;;18.40;53.92
57885;BME280;43703;51.060;-0.086;2022-07-12T05:20:39;100860.86;;;18.49;53.78
57885;BME280;43703;51.060;-0.086;2022-07-12T05:23:04;100861.74;;;18.95;53.31
57885;BME280;43703;51.060;-0.086;2022-07-12T05:25:29;100861.80;;;17.80;54.97
57885;BME280;43703;51.060;-0.086;2022-07-12T05:27:54;100863.21;;;18.35;54.27
57885;BME280;43703;51.060;-0.086;2022-07-12T05:30:19;100865.92;;;17.82;55.47
57885;BME280;43703;51.060;-0.086;2022-07-12T05:32:44;100863.70;;;18.06;55.50
57885;BME280;43703;51.060;-0.086;2022-07-12T05:35:09;100866.91;;;17.52;57.35
57885;BME280;43703;51.060;-0.086;2022-07-12T05:37:34;100871.89;;;18.88;54.51
57885;BME280;43703;51.060;-0.086;2022-07-12T05:39:59;100875.08;;;19.34;54.14
57885;BME280;43703;51.060;-0.086;2022-07-12T05:42:24;100878.52;;;19.66;51.71
57885;BME280;43703;51.060;-0.086;2022-07-12T05:44:50;100883.68;;;19.35;52.21
57885;BME280;43703;51.060;-0.086;2022-07-12T05:47:14;100886.22;;;18.89;52.62
57885;BME280;43703;51.060;-0.086;2022-07-12T05:49:40;100887.17;;;19.38;52.51
57885;BME280;43703;51.060;-0.086;2022-07-12T05:52:04;100891.70;;;19.90;52.35
57885;BME280;43703;51.060;-0.086;2022-07-12T05:54:29;100890.21;;;20.00;52.37
57885;BME280;43703;51.060;-0.086;2022-07-12T05:56:54;100886.72;;;20.09;52.24
57885;BME280;43703;51.060;-0.086;2022-07-12T05:59:20;100884.86;;;19.32;52.19
57885;BME280;43703;51.060;-0.086;2022-07-12T06:01:45;100887.67;;;19.71;51.33
57885;BME280;43703;51.060;-0.086;2022-07-12T06:04:09;100884.48;;;19.69;52.21
57885;BME280;43703;51.060;-0.086;2022-07-12T06:06:34;100887.57;;;19.47;52.65
57885;BME280;43703;51.060;-0.086;2022-07-12T06:09:00;100891.53;;;19.09;53.76
57885;BME280;43703;51.060;-0.086;2022-07-12T06:11:27;100891.82;;;19.64;53.20
57885;BME280;43703;51.060;-0.086;2022-07-12T06:13:52;100894.94;;;20.58;51.57
57885;BME280;43703;51.060;-0.086;2022-07-12T06:16:16;100892.32;;;20.77;49.66
57885;BME280;43703;51.060;-0.086;2022-07-12T06:18:41;100897.40;;;19.93;51.62
57885;BME280;43703;51.060;-0.086;2022-07-12T06:21:06;100898.24;;;19.63;52.58
57885;BME280;43703;51.060;-0.086;2022-07-12T06:23:32;100898.34;;;20.46;51.67
57885;BME280;43703;51.060;-0.086;2022-07-12T06:25:56;100896.94;;;20.85;50.97
57885;BME280;43703;51.060;-0.086;2022-07-12T06:28:21;100896.24;;;21.05;51.66
57885;BME280;43703;51.060;-0.086;2022-07-12T06:30:46;100896.94;;;21.65;49.63
57885;BME280;43703;51.060;-0.086;2022-07-12T06:33:11;100899.25;;;22.12;47.38
57885;BME280;43703;51.060;-0.086;2022-07-12T06:35:41;100891.69;;;23.00;47.45
57885;BME280;43703;51.060;-0.086;2022-07-12T06:38:02;100894.49;;;22.13;47.07
57885;BME280;43703;51.060;-0.086;2022-07-12T06:40:27;100892.04;;;22.50;48.60
57885;BME280;43703;51.060;-0.086;2022-07-12T06:42:51;100897.38;;;21.59;48.39
57885;BME280;43703;51.060;-0.086;2022-07-12T06:45:16;100897.93;;;22.92;48.64
57885;BME280;43703;51.060;-0.086;2022-07-12T06:47:41;100897.59;;;22.79;46.92
57885;BME280;43703;51.060;-0.086;2022-07-12T06:50:07;100899.75;;;23.28;44.92
57885;BME280;43703;51.060;-0.086;2022-07-12T06:52:33;100899.58;;;22.34;47.18
57885;BME280;43703;51.060;-0.086;2022-07-12T06:54:58;100899.50;;;22.49;47.45
57885;BME280;43703;51.060;-0.086;2022-07-12T06:57:23;100901.26;;;22.92;46.07
57885;BME280;43703;51.060;-0.086;2022-07-12T06:59:47;100897.98;;;22.65;46.95
57885;BME280;43703;51.060;-0.086;2022-07-12T07:02:12;100893.87;;;22.58;47.14
57885;BME280;43703;51.060;-0.086;2022-07-12T07:04:37;100898.87;;;24.23;46.88
57885;BME280;43703;51.060;-0.086;2022-07-12T07:07:03;100894.74;;;24.84;42.75
57885;BME280;43703;51.060;-0.086;2022-07-12T07:09:28;100890.57;;;25.07;43.18
57885;BME280;43703;51.060;-0.086;2022-07-12T07:11:53;100888.47;;;26.99;37.94
57885;BME280;43703;51.060;-0.086;2022-07-12T07:14:17;100891.16;;;25.71;41.11
57885;BME280;43703;51.060;-0.086;2022-07-12T07:16:43;100893.76;;;26.68;40.07
57885;BME280;43703;51.060;-0.086;2022-07-12T07:19:08;100896.67;;;27.35;37.65
57885;BME280;43703;51.060;-0.086;2022-07-12T07:21:33;100898.86;;;27.83;37.47
57885;BME280;43703;51.060;-0.086;2022-07-12T07:23:58;100901.95;;;28.04;34.71
57885;BME280;43703;51.060;-0.086;2022-07-12T07:26:23;100901.54;;;27.28;36.82
57885;BME280;43703;51.060;-0.086;2022-07-12T07:28:48;100901.23;;;26.82;36.07
57885;BME280;43703;51.060;-0.086;2022-07-12T07:31:13;100901.03;;;25.88;40.15
57885;BME280;43703;51.060;-0.086;2022-07-12T07:33:38;100900.01;;;26.72;36.87
57885;BME280;43703;51.060;-0.086;2022-07-12T07:36:03;100899.87;;;26.80;36.59
57885;BME280;43703;51.060;-0.086;2022-07-12T07:38:28;100905.03;;;25.83;39.14
57885;BME280;43703;51.060;-0.086;2022-07-12T07:40:52;100905.03;;;25.62;38.26
57885;BME280;43703;51.060;-0.086;2022-07-12T07:43:18;100908.68;;;25.16;40.46
57885;BME280;43703;51.060;-0.086;2022-07-12T07:45:43;100909.95;;;25.00;41.75
57885;BME280;43703;51.060;-0.086;2022-07-12T07:48:08;100912.45;;;24.57;42.08
57885;BME280;43703;51.060;-0.086;2022-07-12T07:50:33;100911.17;;;25.48;41.49
57885;BME280;43703;51.060;-0.086;2022-07-12T07:52:58;100915.60;;;25.40;42.19
57885;BME280;43703;51.060;-0.086;2022-07-12T07:55:23;100916.12;;;27.77;40.24
57885;BME280;43703;51.060;-0.086;2022-07-12T07:57:48;100917.41;;;27.04;37.71
57885;BME280;43703;51.060;-0.086;2022-07-12T08:00:14;100921.25;;;28.88;40.37
57885;BME280;43703;51.060;-0.086;2022-07-12T08:02:38;100922.73;;;29.23;35.75
57885;BME280;43703;51.060;-0.086;2022-07-12T08:05:03;100926.90;;;28.98;33.85
57885;BME280;43703;51.060;-0.086;2022-07-12T08:07:28;100930.23;;;30.78;35.00
57885;BME280;43703;51.060;-0.086;2022-07-12T08:09:54;100929.14;;;29.68;35.64
57885;BME280;43703;51.060;-0.086;2022-07-12T08:12:19;100930.83;;;30.52;32.56
57885;BME280;43703;51.060;-0.086;2022-07-12T08:14:44;100931.13;;;29.02;33.55
57885;BME280;43703;51.060;-0.086;2022-07-12T08:17:09;100929.11;;;30.30;34.81
57885;BME280;43703;51.060;-0.086;2022-07-12T08:19:34;100928.81;;;29.71;36.02
57885;BME280;43703;51.060;-0.086;2022-07-12T08:21:59;100927.01;;;29.97;34.90
57885;BME280;43703;51.060;-0.086;2022-07-12T08:24:24;100927.04;;;29.85;34.95
57885;BME280;43703;51.060;-0.086;2022-07-12T08:26:49;100925.68;;;28.82;35.77
57885;BME280;43703;51.060;-0.086;2022-07-12T08:29:14;100925.13;;;27.95;35.50
57885;BME280;43703;51.060;-0.086;2022-07-12T08:31:39;100925.85;;;29.00;36.28
57885;BME280;43703;51.060;-0.086;2022-07-12T08:34:04;100928.12;;;27.84;34.97
57885;BME280;43703;51.060;-0.086;2022-07-12T08:36:29;100929.08;;;28.54;36.64
57885;BME280;43703;51.060;-0.086;2022-07-12T08:38:54;100926.03;;;27.57;36.00
57885;BME280;43703;51.060;-0.086;2022-07-12T08:41:19;100926.88;;;27.56;37.16
57885;BME280;43703;51.060;-0.086;2022-07-12T08:43:44;100930.15;;;29.00;36.06
57885;BME280;43703;51.060;-0.086;2022-07-12T08:46:10;100932.57;;;28.63;38.91
57885;BME280;43703;51.060;-0.086;2022-07-12T08:48:35;100934.82;;;28.91;34.78
57885;BME280;43703;51.060;-0.086;2022-07-12T08:51:01;100935.71;;;28.96;35.60
57885;BME280;43703;51.060;-0.086;2022-07-12T08:53:24;100934.83;;;29.58;37.22
57885;BME280;43703;51.060;-0.086;2022-07-12T08:55:49;100933.03;;;28.13;34.18
57885;BME280;43703;51.060;-0.086;2022-07-12T08:58:16;100934.80;;;29.05;35.37
57885;BME280;43703;51.060;-0.086;2022-07-12T09:00:39;100936.32;;;28.52;34.79
57885;BME280;43703;51.060;-0.086;2022-07-12T09:03:04;100937.27;;;28.26;36.40
57885;BME280;43703;51.060;-0.086;2022-07-12T09:05:30;100941.79;;;28.99;40.25
57885;BME280;43703;51.060;-0.086;2022-07-12T09:08:01;100942.50;;;28.36;35.54
57885;BME280;43703;51.060;-0.086;2022-07-12T09:10:19;100946.38;;;29.06;35.42
57885;BME280;43703;51.060;-0.086;2022-07-12T09:12:45;100949.43;;;29.43;33.03
57885;BME280;43703;51.060;-0.086;2022-07-12T09:15:12;100943.19;;;29.00;32.75
57885;BME280;43703;51.060;-0.086;2022-07-12T09:17:34;100942.55;;;29.68;33.62
57885;BME280;43703;51.060;-0.086;2022-07-12T09:19:59;100937.02;;;30.43;30.34
57885;BME280;43703;51.060;-0.086;2022-07-12T09:22:25;100938.45;;;31.89;31.24
57885;BME280;43703;51.060;-0.086;2022-07-12T09:24:51;100936.02;;;30.33;28.45
57885;BME280;43703;51.060;-0.086;2022-07-12T09:27:15;100933.71;;;31.28;28.21
57885;BME280;43703;51.060;-0.086;2022-07-12T09:29:46;100937.83;;;32.91;24.97
57885;BME280;43703;51.060;-0.086;2022-07-12T09:32:07;100938.48;;;31.60;29.64
57885;BME280;43703;51.060;-0.086;2022-07-12T09:34:31;100948.08;;;31.64;29.47
57885;BME280;43703;51.060;-0.086;2022-07-12T09:36:56;100951.81;;;30.40;29.09
57885;BME280;43703;51.060;-0.086;2022-07-12T09:39:22;100950.21;;;30.58;28.90
57885;BME280;43703;51.060;-0.086;2022-07-12T09:41:46;100944.46;;;30.21;29.38
57885;BME280;43703;51.060;-0.086;2022-07-12T09:44:10;100940.09;;;29.96;30.21
57885;BME280;43703;51.060;-0.086;2022-07-12T09:46:37;100934.86;;;28.88;30.86
57885;BME280;43703;51.060;-0.086;2022-07-12T09:49:01;100925.75;;;28.00;31.81
57885;BME280;43703;51.060;-0.086;2022-07-12T09:51:27;100927.85;;;28.62;32.36
57885;BME280;43703;51.060;-0.086;2022-07-12T09:53:51;100932.81;;;27.74;33.03
57885;BME280;43703;51.060;-0.086;2022-07-12T09:56:17;100939.84;;;28.14;32.45
57885;BME280;43703;51.060;-0.086;2022-07-12T09:58:47;100943.43;;;28.75;33.39
57885;BME280;43703;51.060;-0.086;2022-07-12T10:01:07;100939.37;;;27.93;32.24
57885;BME280;43703;51.060;-0.086;2022-07-12T10:03:36;100943.90;;;28.74;31.93
57885;BME280;43703;51.060;-0.086;2022-07-12T10:05:55;100942.35;;;30.22;32.04
57885;BME280;43703;51.060;-0.086;2022-07-12T10:08:21;100942.67;;;30.56;30.28
57885;BME280;43703;51.060;-0.086;2022-07-12T10:10:51;100939.67;;;29.57;29.42
57885;BME280;43703;51.060;-0.086;2022-07-12T10:13:10;100935.60;;;28.79;30.41
57885;BME280;43703;51.060;-0.086;2022-07-12T10:15:35;100936.32;;;28.55;31.73
57885;BME280;43703;51.060;-0.086;2022-07-12T10:18:00;100935.73;;;27.68;32.81
57885;BME280;43703;51.060;-0.086;2022-07-12T10:20:26;100940.96;;;29.61;35.62
57885;BME280;43703;51.060;-0.086;2022-07-12T10:22:52;100936.38;;;30.18;31.32
57885;BME280;43703;51.060;-0.086;2022-07-12T10:27:41;100933.16;;;30.93;30.87
57885;BME280;43703;51.060;-0.086;2022-07-12T10:30:13;100933.32;;;31.46;29.96
57885;BME280;43703;51.060;-0.086;2022-07-12T10:32:34;100931.86;;;31.81;29.27
57885;BME280;43703;51.060;-0.086;2022-07-12T10:34:59;100932.67;;;32.66;27.95
57885;BME280;43703;51.060;-0.086;2022-07-12T10:37:22;100933.71;;;32.43;28.60
57885;BME280;43703;51.060;-0.086;2022-07-12T10:42:14;100935.40;;;32.16;26.25
57885;BME280;43703;51.060;-0.086;2022-07-12T10:44:39;100944.36;;;32.79;27.26
57885;BME280;43703;51.060;-0.086;2022-07-12T10:47:03;100943.90;;;31.66;27.33
57885;BME280;43703;51.060;-0.086;2022-07-12T10:49:28;100945.98;;;32.05;28.21
57885;BME280;43703;51.060;-0.086;2022-07-12T10:54:20;100944.22;;;31.65;30.36
57885;BME280;43703;51.060;-0.086;2022-07-12T10:59:06;100940.30;;;32.83;29.63
57885;BME280;43703;51.060;-0.086;2022-07-12T11:01:32;100932.53;;;32.27;26.42
57885;BME280;43703;51.060;-0.086;2022-07-12T11:04:03;100929.63;;;32.75;24.91
57885;BME280;43703;51.060;-0.086;2022-07-12T11:06:24;100929.89;;;35.14;25.49
57885;BME280;43703;51.060;-0.086;2022-07-12T11:08:48;100934.16;;;33.79;25.81
57885;BME280;43703;51.060;-0.086;2022-07-12T11:11:12;100930.34;;;32.96;25.03
57885;BME280;43703;51.060;-0.086;2022-07-12T11:13:37;100926.45;;;32.55;25.34
57885;BME280;43703;51.060;-0.086;2022-07-12T11:16:03;100920.54;;;31.86;28.40
57885;BME280;43703;51.060;-0.086;2022-07-12T11:18:29;100918.26;;;31.35;27.12
57885;BME280;43703;51.060;-0.086;2022-07-12T11:20:55;100920.96;;;34.09;28.44
57885;BME280;43703;51.060;-0.086;2022-07-12T11:23:17;100920.59;;;33.83;24.90
57885;BME280;43703;51.060;-0.086;2022-07-12T11:25:44;100924.85;;;32.60;25.16
57885;BME280;43703;51.060;-0.086;2022-07-12T11:28:10;100929.45;;;32.82;24.85
57885;BME280;43703;51.060;-0.086;2022-07-12T11:30:32;100923.11;;;32.95;28.64
57885;BME280;43703;51.060;-0.086;2022-07-12T11:32:58;100922.76;;;33.93;27.23
57885;BME280;43703;51.060;-0.086;2022-07-12T11:35:24;100922.83;;;32.23;24.84
57885;BME280;43703;51.060;-0.086;2022-07-12T11:37:50;100920.00;;;32.04;28.08
57885;BME280;43703;51.060;-0.086;2022-07-12T11:40:14;100916.23;;;32.08;25.56
57885;BME280;43703;51.060;-0.086;2022-07-12T11:42:39;100917.53;;;32.33;28.99
57885;BME280;43703;51.060;-0.086;2022-07-12T11:45:03;100915.10;;;33.81;27.52
57885;BME280;43703;51.060;-0.086;2022-07-12T11:47:31;100906.79;;;33.14;25.38
57885;BME280;43703;51.060;-0.086;2022-07-12T11:49:55;100905.33;;;34.85;23.69
57885;BME280;43703;51.060;-0.086;2022-07-12T11:52:20;100901.94;;;33.94;24.66
57885;BME280;43703;51.060;-0.086;2022-07-12T11:54:43;100899.57;;;35.42;25.47
57885;BME280;43703;51.060;-0.086;2022-07-12T11:57:09;100900.39;;;34.04;26.34
57885;BME280;43703;51.060;-0.086;2022-07-12T11:59:33;100898.38;;;35.84;23.29
57885;BME280;43703;51.060;-0.086;2022-07-12T12:02:03;100900.68;;;35.09;25.62
57885;BME280;43703;51.060;-0.086;2022-07-12T12:04:23;100898.52;;;35.71;24.79
57885;BME280;43703;51.060;-0.086;2022-07-12T12:06:49;100905.92;;;33.97;25.15
57885;BME280;43703;51.060;-0.086;2022-07-12T12:09:14;100906.34;;;32.85;26.94
57885;BME280;43703;51.060;-0.086;2022-07-12T12:11:38;100904.46;;;31.80;28.63
57885;BME280;43703;51.060;-0.086;2022-07-12T12:14:04;100898.04;;;32.13;29.05
57885;BME280;43703;51.060;-0.086;2022-07-12T12:16:33;100899.75;;;30.88;26.67
57885;BME280;43703;51.060;-0.086;2022-07-12T12:18:55;100899.15;;;30.99;26.03
57885;BME280;43703;51.060;-0.086;2022-07-12T12:21:26;100897.88;;;29.85;28.58
57885;BME280;43703;51.060;-0.086;2022-07-12T12:23:45;100893.24;;;30.15;29.62
57885;BME280;43703;51.060;-0.086;2022-07-12T12:26:14;100888.78;;;30.34;29.31
57885;BME280;43703;51.060;-0.086;2022-07-12T12:28:41;100886.27;;;29.43;28.84
57885;BME280;43703;51.060;-0.086;2022-07-12T12:31:00;100889.69;;;29.52;29.68
57885;BME280;43703;51.060;-0.086;2022-07-12T12:33:33;100883.50;;;30.28;30.55
57885;BME280;43703;51.060;-0.086;2022-07-12T12:35:50;100879.88;;;29.55;29.80
57885;BME280;43703;51.060;-0.086;2022-07-12T12:38:15;100877.40;;;29.80;28.88